createdAt,value
2018-04-23T00:00:58.745Z,0.00
2018-04-23T00:01:58.722Z,0.00
2018-04-23T00:02:58.661Z,0.00
2018-04-23T00:03:58.634Z,0.00
2018-04-23T00:04:58.635Z,0.00
2018-04-23T00:05:58.557Z,0.00
2018-04-23T00:06:58.582Z,0.00
2018-04-23T00:07:58.491Z,0.00
2018-04-23T00:08:58.445Z,0.00
2018-04-23T00:09:58.412Z,0.00
2018-04-23T00:10:58.425Z,0.00
2018-04-23T00:11:58.353Z,0.00
2018-04-23T00:12:58.297Z,0.00
2018-04-23T00:13:58.295Z,0.00
2018-04-23T00:14:58.265Z,0.00
2018-04-23T00:15:58.240Z,0.00
2018-04-23T00:16:58.183Z,0.00
2018-04-23T00:17:58.147Z,0.00
2018-04-23T00:18:58.110Z,0.00
2018-04-23T00:19:58.071Z,0.00
2018-04-23T00:20:58.041Z,0.00
2018-04-23T00:21:58.183Z,0.00
2018-04-23T00:22:57.973Z,0.00
2018-04-23T00:23:57.941Z,0.00
2018-04-23T00:24:57.883Z,0.00
2018-04-23T00:25:57.929Z,0.00
2018-04-23T00:26:57.809Z,0.00
2018-04-23T00:27:57.772Z,0.00
2018-04-23T00:28:57.738Z,0.00
2018-04-23T00:29:57.698Z,0.00
2018-04-23T00:30:57.673Z,0.00
2018-04-23T00:31:57.644Z,0.00
2018-04-23T00:32:57.622Z,0.00
2018-04-23T00:33:57.567Z,0.00
2018-04-23T00:34:57.555Z,0.00
2018-04-23T00:35:57.491Z,0.00
2018-04-23T00:36:57.455Z,0.00
2018-04-23T00:37:57.436Z,0.00
2018-04-23T00:38:57.382Z,0.00
2018-04-23T00:39:57.361Z,0.00
2018-04-23T00:40:57.343Z,0.00
2018-04-23T00:41:58.092Z,0.00
2018-04-23T00:42:57.272Z,0.00
2018-04-23T00:43:57.368Z,0.00
2018-04-23T00:44:57.169Z,0.00
2018-04-23T00:45:57.158Z,0.00
2018-04-23T00:46:57.135Z,0.00
2018-04-23T00:47:57.053Z,0.00
2018-04-23T00:48:57.046Z,0.00
2018-04-23T00:49:57.000Z,0.00
2018-04-23T00:50:56.954Z,0.00
2018-04-23T00:51:56.939Z,0.00
2018-04-23T00:52:56.882Z,0.00
2018-04-23T00:53:56.864Z,0.00
2018-04-23T00:54:56.828Z,0.00
2018-04-23T00:55:56.778Z,0.00
2018-04-23T00:56:56.741Z,0.00
2018-04-23T00:57:56.733Z,0.00
2018-04-23T00:58:56.655Z,0.00
2018-04-23T00:59:56.636Z,0.00
2018-04-23T01:00:56.579Z,0.00
2018-04-23T01:01:56.581Z,0.00
2018-04-23T01:02:56.513Z,0.00
2018-04-23T01:03:56.493Z,0.00
2018-04-23T01:04:56.438Z,0.00
2018-04-23T01:05:56.403Z,0.00
2018-04-23T01:06:56.398Z,0.00
2018-04-23T01:07:56.335Z,0.00
2018-04-23T01:08:56.297Z,0.00
2018-04-23T01:09:56.285Z,0.00
2018-04-23T01:10:56.285Z,0.00
2018-04-23T01:11:56.293Z,0.00
2018-04-23T01:12:56.160Z,0.00
2018-04-23T01:13:56.156Z,0.00
2018-04-23T01:14:56.081Z,0.00
2018-04-23T01:15:56.088Z,0.00
2018-04-23T01:16:56.071Z,0.00
2018-04-23T01:17:56.039Z,0.00
2018-04-23T01:18:55.943Z,0.00
2018-04-23T01:19:55.898Z,0.00
2018-04-23T01:20:55.874Z,0.00
2018-04-23T01:21:55.880Z,0.00
2018-04-23T01:22:55.823Z,0.00
2018-04-23T01:23:55.781Z,0.00
2018-04-23T01:24:55.782Z,0.00
2018-04-23T01:25:55.690Z,0.00
2018-04-23T01:26:55.675Z,0.00
2018-04-23T01:27:55.620Z,0.00
2018-04-23T01:28:55.589Z,0.00
2018-04-23T01:29:55.604Z,0.00
2018-04-23T01:30:55.547Z,0.00
2018-04-23T01:31:55.459Z,0.00
2018-04-23T01:32:55.457Z,0.00
2018-04-23T01:33:55.453Z,0.00
2018-04-23T01:34:56.100Z,0.00
2018-04-23T01:35:55.311Z,0.00
2018-04-23T01:36:55.340Z,0.00
2018-04-23T01:37:55.245Z,0.00
2018-04-23T01:38:55.269Z,0.00
2018-04-23T01:39:55.163Z,0.00
2018-04-23T01:40:55.165Z,0.00
2018-04-23T01:41:55.127Z,0.00
2018-04-23T01:42:55.082Z,0.00
2018-04-23T01:43:55.051Z,0.00
2018-04-23T01:44:55.013Z,0.00
2018-04-23T01:45:54.974Z,0.00
2018-04-23T01:46:54.918Z,0.00
2018-04-23T01:47:54.919Z,0.00
2018-04-23T01:48:54.873Z,0.00
2018-04-23T01:49:54.837Z,0.00
2018-04-23T01:50:54.781Z,0.00
2018-04-23T01:51:54.740Z,0.00
2018-04-23T01:52:54.703Z,0.00
2018-04-23T01:53:54.654Z,0.00
2018-04-23T01:54:54.682Z,0.00
2018-04-23T01:55:54.597Z,0.00
2018-04-23T01:56:54.561Z,0.00
2018-04-23T01:57:54.543Z,0.00
2018-04-23T01:58:54.490Z,0.00
2018-04-23T01:59:54.502Z,0.00
2018-04-23T02:00:54.450Z,0.00
2018-04-23T02:01:54.376Z,0.00
2018-04-23T02:02:54.333Z,0.00
2018-04-23T02:03:54.334Z,0.00
2018-04-23T02:04:54.281Z,0.00
2018-04-23T02:05:54.235Z,0.00
2018-04-23T02:06:54.209Z,0.00
2018-04-23T02:07:54.171Z,0.00
2018-04-23T02:08:54.140Z,0.00
2018-04-23T02:09:54.071Z,0.00
2018-04-23T02:10:54.081Z,0.00
2018-04-23T02:11:54.006Z,0.00
2018-04-23T02:12:53.981Z,0.00
2018-04-23T02:13:53.923Z,0.00
2018-04-23T02:14:53.939Z,0.00
2018-04-23T02:15:53.857Z,0.00
2018-04-23T02:16:53.821Z,0.00
2018-04-23T02:17:53.806Z,0.00
2018-04-23T02:18:53.733Z,0.00
2018-04-23T02:19:53.724Z,0.00
2018-04-23T02:20:53.707Z,0.00
2018-04-23T02:21:53.643Z,0.00
2018-04-23T02:22:53.621Z,0.00
2018-04-23T02:23:53.578Z,0.00
2018-04-23T02:24:53.516Z,0.00
2018-04-23T02:25:53.584Z,0.00
2018-04-23T02:26:53.452Z,0.00
2018-04-23T02:27:53.422Z,0.00
2018-04-23T02:28:53.371Z,0.00
2018-04-23T02:29:53.378Z,0.00
2018-04-23T02:30:53.322Z,0.00
2018-04-23T02:31:53.260Z,0.00
2018-04-23T02:32:53.321Z,0.00
2018-04-23T02:33:53.203Z,0.00
2018-04-23T02:34:53.149Z,0.00
2018-04-23T02:35:53.123Z,0.00
2018-04-23T02:36:53.069Z,0.00
2018-04-23T02:37:53.620Z,0.00
2018-04-23T02:38:52.994Z,0.00
2018-04-23T02:39:52.985Z,0.00
2018-04-23T02:40:52.942Z,0.00
2018-04-23T02:41:52.887Z,0.00
2018-04-23T02:42:52.860Z,0.00
2018-04-23T02:43:52.824Z,0.00
2018-04-23T02:44:52.794Z,0.00
2018-04-23T02:45:52.809Z,0.00
2018-04-23T02:46:52.774Z,0.00
2018-04-23T02:47:52.690Z,0.00
2018-04-23T02:48:52.627Z,0.00
2018-04-23T02:49:52.614Z,0.00
2018-04-23T02:50:52.558Z,0.00
2018-04-23T02:51:52.535Z,0.00
2018-04-23T02:52:52.477Z,0.00
2018-04-23T02:53:52.448Z,0.00
2018-04-23T02:54:52.468Z,0.00
2018-04-23T02:55:52.393Z,0.00
2018-04-23T02:56:52.342Z,0.00
2018-04-23T02:57:52.301Z,0.00
2018-04-23T02:58:52.270Z,0.00
2018-04-23T02:59:52.226Z,0.00
2018-04-23T03:00:52.184Z,0.00
2018-04-23T03:01:52.144Z,0.00
2018-04-23T03:02:52.169Z,0.00
2018-04-23T03:03:52.098Z,0.00
2018-04-23T03:04:52.036Z,0.00
2018-04-23T03:05:51.989Z,0.00
2018-04-23T03:06:51.978Z,0.00
2018-04-23T03:07:51.950Z,0.00
2018-04-23T03:08:51.957Z,0.00
2018-04-23T03:09:51.867Z,0.00
2018-04-23T03:10:51.910Z,0.00
2018-04-23T03:11:51.793Z,0.00
2018-04-23T03:12:51.743Z,0.00
2018-04-23T03:13:51.713Z,0.00
2018-04-23T03:14:51.696Z,0.00
2018-04-23T03:15:51.628Z,0.00
2018-04-23T03:16:51.590Z,0.00
2018-04-23T03:17:51.675Z,0.00
2018-04-23T03:18:51.535Z,0.00
2018-04-23T03:19:51.485Z,0.00
2018-04-23T03:20:51.444Z,0.00
2018-04-23T03:21:51.433Z,0.00
2018-04-23T03:22:51.387Z,0.00
2018-04-23T03:23:51.353Z,0.00
2018-04-23T03:24:51.323Z,0.00
2018-04-23T03:25:51.276Z,0.00
2018-04-23T03:26:51.257Z,4.00
2018-04-23T03:27:51.211Z,4.00
2018-04-23T03:28:51.147Z,4.00
2018-04-23T03:29:51.116Z,4.00
2018-04-23T03:30:51.097Z,4.00
2018-04-23T03:31:51.061Z,4.00
2018-04-23T03:32:50.995Z,8.00
2018-04-23T03:33:50.963Z,8.00
2018-04-23T03:34:50.947Z,12.00
2018-04-23T03:35:50.884Z,8.00
2018-04-23T03:36:50.865Z,12.00
2018-04-23T03:37:50.849Z,12.00
2018-04-23T03:38:50.802Z,16.00
2018-04-23T03:39:50.744Z,16.00
2018-04-23T03:40:50.765Z,20.00
2018-04-23T03:41:50.704Z,24.00
2018-04-23T03:42:50.645Z,28.00
2018-04-23T03:43:50.589Z,28.00
2018-04-23T03:44:50.585Z,32.00
2018-04-23T03:45:50.513Z,36.00
2018-04-23T03:46:50.496Z,36.00
2018-04-23T03:47:50.463Z,44.00
2018-04-23T03:48:50.420Z,44.00
2018-04-23T03:49:50.383Z,48.00
2018-04-23T03:50:50.386Z,56.00
2018-04-23T03:51:50.313Z,64.00
2018-04-23T03:52:50.372Z,72.00
2018-04-23T03:53:50.221Z,80.00
2018-04-23T03:54:50.176Z,92.00
2018-04-23T03:55:50.203Z,104.00
2018-04-23T03:56:50.143Z,116.00
2018-04-23T03:57:50.077Z,128.00
2018-04-23T03:58:50.083Z,144.00
2018-04-23T03:59:49.994Z,160.00
2018-04-23T04:00:49.965Z,180.00
2018-04-23T04:01:49.942Z,196.00
2018-04-23T04:02:49.903Z,208.00
2018-04-23T04:03:49.856Z,216.00
2018-04-23T04:04:49.806Z,232.00
2018-04-23T04:05:49.771Z,244.00
2018-04-23T04:06:49.747Z,260.00
2018-04-23T04:07:49.726Z,280.00
2018-04-23T04:08:49.840Z,300.00
2018-04-23T04:09:49.769Z,324.00
2018-04-23T04:10:49.632Z,356.00
2018-04-23T04:11:49.601Z,380.00
2018-04-23T04:12:49.527Z,412.00
2018-04-23T04:13:49.526Z,444.00
2018-04-23T04:14:49.449Z,480.00
2018-04-23T04:15:49.412Z,516.00
2018-04-23T04:16:49.388Z,556.00
2018-04-23T04:17:49.336Z,584.00
2018-04-23T04:18:49.281Z,608.00
2018-04-23T04:19:49.243Z,636.00
2018-04-23T04:20:49.228Z,664.00
2018-04-23T04:21:49.186Z,704.00
2018-04-23T04:22:49.135Z,752.00
2018-04-23T04:23:49.118Z,812.00
2018-04-23T04:24:49.071Z,872.00
2018-04-23T04:25:49.029Z,944.00
2018-04-23T04:26:49.032Z,996.00
2018-04-23T04:27:49.001Z,1040.00
2018-04-23T04:28:48.939Z,1064.00
2018-04-23T04:29:48.888Z,1088.00
2018-04-23T04:30:48.875Z,1108.00
2018-04-23T04:31:49.649Z,1140.00
2018-04-23T04:32:48.786Z,1196.00
2018-04-23T04:33:48.750Z,1248.00
2018-04-23T04:34:48.742Z,1316.00
2018-04-23T04:35:48.722Z,1396.00
2018-04-23T04:36:48.643Z,1484.00
2018-04-23T04:37:48.645Z,1572.00
2018-04-23T04:38:48.571Z,1668.00
2018-04-23T04:39:48.520Z,1776.00
2018-04-23T04:40:48.529Z,1892.00
2018-04-23T04:41:48.499Z,2040.00
2018-04-23T04:42:48.409Z,2228.00
2018-04-23T04:43:48.404Z,2460.00
2018-04-23T04:44:48.363Z,2720.00
2018-04-23T04:45:48.306Z,2952.00
2018-04-23T04:46:48.373Z,3192.00
2018-04-23T04:47:48.261Z,3464.00
2018-04-23T04:48:48.208Z,3740.00
2018-04-23T04:49:48.148Z,3976.00
2018-04-23T04:50:48.124Z,4160.00
2018-04-23T04:51:48.166Z,4248.00
2018-04-23T04:52:48.073Z,4228.00
2018-04-23T04:53:48.024Z,4096.00
2018-04-23T04:54:47.985Z,3968.00
2018-04-23T04:55:47.951Z,3832.00
2018-04-23T04:56:47.944Z,3804.00
2018-04-23T04:57:47.921Z,3868.00
2018-04-23T04:58:47.839Z,4060.00
2018-04-23T04:59:47.796Z,4348.00
2018-04-23T05:00:47.785Z,4748.00
2018-04-23T05:01:47.756Z,5276.00
2018-04-23T05:02:47.685Z,5840.00
2018-04-23T05:03:47.665Z,6332.00
2018-04-23T05:04:47.643Z,6708.00
2018-04-23T05:05:47.607Z,7040.00
2018-04-23T05:06:47.570Z,7396.00
2018-04-23T05:07:47.519Z,7600.00
2018-04-23T05:08:47.481Z,7872.00
2018-04-23T05:09:47.504Z,8240.00
2018-04-23T05:10:47.404Z,8592.00
2018-04-23T05:11:47.391Z,8720.00
2018-04-23T05:12:47.334Z,8484.00
2018-04-23T05:13:47.345Z,8048.00
2018-04-23T05:14:47.305Z,7616.00
2018-04-23T05:15:47.271Z,7340.00
2018-04-23T05:16:47.201Z,7048.00
2018-04-23T05:17:47.229Z,6652.00
2018-04-23T05:18:47.128Z,6276.00
2018-04-23T05:19:47.088Z,6008.00
2018-04-23T05:20:47.051Z,5860.00
2018-04-23T05:21:47.040Z,5848.00
2018-04-23T05:22:47.066Z,5984.00
2018-04-23T05:23:47.004Z,6036.00
2018-04-23T05:24:46.961Z,6268.00
2018-04-23T05:25:46.923Z,6592.00
2018-04-23T05:26:46.852Z,6908.00
2018-04-23T05:27:46.848Z,7224.00
2018-04-23T05:28:46.773Z,7600.00
2018-04-23T05:29:46.746Z,7944.00
2018-04-23T05:30:46.712Z,8536.00
2018-04-23T05:31:46.672Z,9520.00
2018-04-23T05:32:46.641Z,10652.00
2018-04-23T05:33:46.687Z,12048.00
2018-04-23T05:34:46.605Z,13568.00
2018-04-23T05:35:46.604Z,15280.00
2018-04-23T05:36:46.509Z,16780.00
2018-04-23T05:37:46.491Z,18272.00
2018-04-23T05:38:46.432Z,19200.00
2018-04-23T05:39:46.413Z,19488.00
2018-04-23T05:40:46.360Z,19008.00
2018-04-23T05:41:46.325Z,17856.00
2018-04-23T05:42:46.321Z,16360.00
2018-04-23T05:43:46.256Z,15172.00
2018-04-23T05:44:46.233Z,14176.00
2018-04-23T05:45:46.193Z,13208.00
2018-04-23T05:46:46.179Z,12452.00
2018-04-23T05:47:46.230Z,12052.00
2018-04-23T05:48:46.112Z,11800.00
2018-04-23T05:49:46.050Z,11904.00
2018-04-23T05:50:46.036Z,12340.00
2018-04-23T05:51:46.007Z,12692.00
2018-04-23T05:52:45.957Z,13144.00
2018-04-23T05:53:45.925Z,13300.00
2018-04-23T05:54:45.905Z,12976.00
2018-04-23T05:55:45.871Z,12588.00
2018-04-23T05:56:45.817Z,12584.00
2018-04-23T05:57:45.803Z,12624.00
2018-04-23T05:58:45.752Z,12448.00
2018-04-23T05:59:45.728Z,11988.00
2018-04-23T06:00:45.822Z,11484.00
2018-04-23T06:01:45.647Z,11028.00
2018-04-23T06:02:45.636Z,10548.00
2018-04-23T06:03:45.587Z,10316.00
2018-04-23T06:04:45.547Z,10064.00
2018-04-23T06:05:45.585Z,9560.00
2018-04-23T06:06:45.477Z,9400.00
2018-04-23T06:07:45.465Z,9908.00
2018-04-23T06:08:45.525Z,10852.00
2018-04-23T06:09:45.434Z,12084.00
2018-04-23T06:10:45.367Z,13468.00
2018-04-23T06:11:45.374Z,14816.00
2018-04-23T06:12:45.284Z,15652.00
2018-04-23T06:13:45.274Z,17228.00
2018-04-23T06:14:45.217Z,19232.00
2018-04-23T06:15:45.232Z,20416.00
2018-04-23T06:16:45.162Z,19264.00
2018-04-23T06:17:45.134Z,16492.00
2018-04-23T06:18:45.103Z,14520.00
2018-04-23T06:19:45.082Z,13304.00
2018-04-23T06:20:45.041Z,13032.00
2018-04-23T06:21:45.020Z,13824.00
2018-04-23T06:22:44.971Z,15492.00
2018-04-23T06:23:44.959Z,16240.00
2018-04-23T06:24:44.928Z,14908.00
2018-04-23T06:25:44.878Z,13376.00
2018-04-23T06:26:44.940Z,13120.00
2018-04-23T06:27:44.805Z,14172.00
2018-04-23T06:28:44.777Z,16020.00
2018-04-23T06:29:44.752Z,18080.00
2018-04-23T06:30:44.717Z,17952.00
2018-04-23T06:31:44.686Z,16860.00
2018-04-23T06:32:44.665Z,16084.00
2018-04-23T06:33:44.609Z,16352.00
2018-04-23T06:34:44.596Z,16832.00
2018-04-23T06:35:44.549Z,17020.00
2018-04-23T06:36:44.555Z,16504.00
2018-04-23T06:37:44.494Z,16208.00
2018-04-23T06:38:44.485Z,16140.00
2018-04-23T06:39:44.417Z,15712.00
2018-04-23T06:40:44.383Z,15492.00
2018-04-23T06:41:44.453Z,15728.00
2018-04-23T06:42:44.327Z,16640.00
2018-04-23T06:43:44.289Z,17320.00
2018-04-23T06:44:44.299Z,17420.00
2018-04-23T06:45:44.250Z,18304.00
2018-04-23T06:46:44.203Z,19456.00
2018-04-23T06:47:44.178Z,20256.00
2018-04-23T06:48:44.177Z,21248.00
2018-04-23T06:49:44.097Z,22176.00
2018-04-23T06:50:44.073Z,22912.00
2018-04-23T06:51:44.069Z,22784.00
2018-04-23T06:52:44.030Z,21632.00
2018-04-23T06:53:43.985Z,20128.00
2018-04-23T06:54:43.958Z,18048.00
2018-04-23T06:55:43.922Z,16288.00
2018-04-23T06:56:43.903Z,14832.00
2018-04-23T06:57:43.889Z,14316.00
2018-04-23T06:58:43.821Z,14588.00
2018-04-23T06:59:43.873Z,15276.00
2018-04-23T07:00:43.798Z,14676.00
2018-04-23T07:01:43.777Z,13208.00
2018-04-23T07:02:43.722Z,12076.00
2018-04-23T07:03:43.703Z,11760.00
2018-04-23T07:04:43.680Z,12008.00
2018-04-23T07:05:43.620Z,12532.00
2018-04-23T07:06:43.571Z,13808.00
2018-04-23T07:07:43.552Z,15752.00
2018-04-23T07:08:43.523Z,19520.00
2018-04-23T07:09:43.517Z,24256.00
2018-04-23T07:10:43.469Z,25856.00
2018-04-23T07:11:43.435Z,23904.00
2018-04-23T07:12:43.452Z,22016.00
2018-04-23T07:13:43.394Z,21824.00
2018-04-23T07:14:43.353Z,19744.00
2018-04-23T07:15:43.369Z,19648.00
2018-04-23T07:16:43.298Z,19200.00
2018-04-23T07:17:43.299Z,18720.00
2018-04-23T07:18:43.273Z,19360.00
2018-04-23T07:19:43.172Z,20896.00
2018-04-23T07:20:43.166Z,23520.00
2018-04-23T07:21:43.138Z,27104.00
2018-04-23T07:22:43.090Z,29728.00
2018-04-23T07:23:43.072Z,33408.00
2018-04-23T07:24:43.055Z,37024.00
2018-04-23T07:25:43.005Z,36480.00
2018-04-23T07:26:42.999Z,42144.00
2018-04-23T07:27:42.957Z,36576.00
2018-04-23T07:28:42.936Z,35936.00
2018-04-23T07:29:42.952Z,35584.00
2018-04-23T07:30:42.899Z,36064.00
2018-04-23T07:31:42.850Z,47616.00
2018-04-23T07:32:42.799Z,42816.00
2018-04-23T07:33:42.771Z,45856.00
2018-04-23T07:34:42.756Z,74496.00
2018-04-23T07:35:42.724Z,46656.00
2018-04-23T07:36:42.704Z,37568.00
2018-04-23T07:37:42.665Z,37408.00
2018-04-23T07:38:42.677Z,42400.00
2018-04-23T07:39:42.612Z,43264.00
2018-04-23T07:40:42.653Z,63392.00
2018-04-23T07:41:42.553Z,85184.00
2018-04-23T07:42:42.526Z,89952.00
2018-04-23T07:43:42.504Z,75392.00
2018-04-23T07:44:42.468Z,58944.00
2018-04-23T07:45:42.433Z,48960.00
2018-04-23T07:46:42.417Z,46528.00
2018-04-23T07:47:42.382Z,40032.00
2018-04-23T07:48:42.363Z,38784.00
2018-04-23T07:49:42.333Z,41984.00
2018-04-23T07:50:42.299Z,62720.00
2018-04-23T07:51:42.273Z,42848.00
2018-04-23T07:52:42.267Z,42592.00
2018-04-23T07:53:42.250Z,41088.00
2018-04-23T07:54:42.216Z,37792.00
2018-04-23T07:55:42.186Z,35936.00
2018-04-23T07:56:42.191Z,37216.00
2018-04-23T07:57:42.141Z,34496.00
2018-04-23T07:58:42.104Z,34144.00
2018-04-23T07:59:42.109Z,33824.00
2018-04-23T08:00:42.076Z,33344.00
2018-04-23T08:01:42.040Z,33568.00
2018-04-23T08:02:42.013Z,33024.00
2018-04-23T08:03:41.983Z,31136.00
2018-04-23T08:04:41.986Z,27904.00
2018-04-23T08:05:41.949Z,24864.00
2018-04-23T08:06:41.989Z,22720.00
2018-04-23T08:07:41.886Z,20768.00
2018-04-23T08:08:41.865Z,19616.00
2018-04-23T08:09:41.900Z,18016.00
2018-04-23T08:10:41.802Z,16284.00
2018-04-23T08:11:41.809Z,15776.00
2018-04-23T08:12:41.772Z,16608.00
2018-04-23T08:13:41.736Z,18464.00
2018-04-23T08:14:41.714Z,20672.00
2018-04-23T08:15:41.683Z,23552.00
2018-04-23T08:16:41.648Z,25920.00
2018-04-23T08:17:41.627Z,28352.00
2018-04-23T08:18:41.614Z,31008.00
2018-04-23T08:19:41.619Z,31936.00
2018-04-23T08:20:41.550Z,32864.00
2018-04-23T08:21:41.532Z,28768.00
2018-04-23T08:22:41.486Z,27552.00
2018-04-23T08:23:41.489Z,27584.00
2018-04-23T08:24:41.446Z,28864.00
2018-04-23T08:25:41.411Z,32352.00
2018-04-23T08:26:41.394Z,35264.00
2018-04-23T08:27:41.353Z,40064.00
2018-04-23T08:28:41.351Z,41856.00
2018-04-23T08:29:41.308Z,39520.00
2018-04-23T08:30:41.287Z,39264.00
2018-04-23T08:31:41.281Z,38528.00
2018-04-23T08:32:41.300Z,36960.00
2018-04-23T08:33:41.211Z,34848.00
2018-04-23T08:34:41.161Z,34112.00
2018-04-23T08:35:41.166Z,34048.00
2018-04-23T08:36:41.122Z,32832.00
2018-04-23T08:37:41.108Z,32800.00
2018-04-23T08:38:41.078Z,28384.00
2018-04-23T08:39:41.046Z,24864.00
2018-04-23T08:40:41.047Z,21856.00
2018-04-23T08:41:40.996Z,18400.00
2018-04-23T08:42:40.995Z,15272.00
2018-04-23T08:43:40.946Z,13364.00
2018-04-23T08:44:40.907Z,12128.00
2018-04-23T08:45:40.883Z,11308.00
2018-04-23T08:46:40.846Z,10548.00
2018-04-23T08:47:40.822Z,9756.00
2018-04-23T08:48:40.876Z,9240.00
2018-04-23T08:49:40.860Z,9536.00
2018-04-23T08:50:40.758Z,10072.00
2018-04-23T08:51:40.726Z,10044.00
2018-04-23T08:52:40.708Z,10040.00
2018-04-23T08:53:40.667Z,10556.00
2018-04-23T08:54:40.666Z,11836.00
2018-04-23T08:55:40.651Z,13568.00
2018-04-23T08:56:40.622Z,15208.00
2018-04-23T08:57:40.655Z,16200.00
2018-04-23T08:58:40.593Z,15968.00
2018-04-23T08:59:40.516Z,16208.00
2018-04-23T09:00:40.540Z,16808.00
2018-04-23T09:01:40.460Z,16508.00
2018-04-23T09:02:40.418Z,17268.00
2018-04-23T09:03:40.405Z,19936.00
2018-04-23T09:04:40.378Z,24320.00
2018-04-23T09:05:40.439Z,29536.00
2018-04-23T09:06:40.311Z,33216.00
2018-04-23T09:07:40.276Z,33024.00
2018-04-23T09:08:40.262Z,29920.00
2018-04-23T09:09:40.230Z,25760.00
2018-04-23T09:10:40.217Z,22976.00
2018-04-23T09:11:40.188Z,23008.00
2018-04-23T09:12:40.150Z,24608.00
2018-04-23T09:13:40.175Z,25760.00
2018-04-23T09:14:40.078Z,25888.00
2018-04-23T09:15:40.057Z,25312.00
2018-04-23T09:16:40.064Z,23936.00
2018-04-23T09:17:40.003Z,21952.00
2018-04-23T09:18:40.012Z,19808.00
2018-04-23T09:19:39.933Z,17388.00
2018-04-23T09:20:39.911Z,15576.00
2018-04-23T09:21:39.952Z,14712.00
2018-04-23T09:22:39.844Z,14656.00
2018-04-23T09:23:39.823Z,15480.00
2018-04-23T09:24:39.816Z,17192.00
2018-04-23T09:25:39.782Z,19776.00
2018-04-23T09:26:39.757Z,22752.00
2018-04-23T09:27:39.759Z,26272.00
2018-04-23T09:28:39.697Z,29344.00
2018-04-23T09:29:39.666Z,31680.00
2018-04-23T09:30:39.732Z,33536.00
2018-04-23T09:31:39.740Z,34368.00
2018-04-23T09:32:39.596Z,34080.00
2018-04-23T09:33:39.644Z,33248.00
2018-04-23T09:34:39.554Z,32928.00
2018-04-23T09:35:39.486Z,33408.00
2018-04-23T09:36:39.482Z,34336.00
2018-04-23T09:37:39.432Z,35360.00
2018-04-23T09:38:39.402Z,35968.00
2018-04-23T09:39:39.372Z,35104.00
2018-04-23T09:40:39.338Z,33504.00
2018-04-23T09:41:39.391Z,31744.00
2018-04-23T09:42:39.296Z,30080.00
2018-04-23T09:43:39.256Z,29024.00
2018-04-23T09:44:39.283Z,29152.00
2018-04-23T09:45:39.197Z,30336.00
2018-04-23T09:46:39.163Z,32704.00
2018-04-23T09:47:39.167Z,35360.00
2018-04-23T09:48:39.131Z,35680.00
2018-04-23T09:49:39.104Z,33536.00
2018-04-23T09:50:39.069Z,30176.00
2018-04-23T09:51:39.023Z,26976.00
2018-04-23T09:52:39.013Z,24000.00
2018-04-23T09:53:38.977Z,21920.00
2018-04-23T09:54:38.972Z,21120.00
2018-04-23T09:55:38.913Z,21504.00
2018-04-23T09:56:38.891Z,22816.00
2018-04-23T09:57:38.869Z,24800.00
2018-04-23T09:58:38.874Z,27328.00
2018-04-23T09:59:38.801Z,29760.00
2018-04-23T10:00:38.772Z,31616.00
2018-04-23T10:01:38.755Z,32928.00
2018-04-23T10:02:38.733Z,33408.00
2018-04-23T10:03:38.698Z,33184.00
2018-04-23T10:04:38.663Z,31456.00
2018-04-23T10:05:38.650Z,30048.00
2018-04-23T10:06:38.601Z,29472.00
2018-04-23T10:07:38.592Z,29344.00
2018-04-23T10:08:38.563Z,29984.00
2018-04-23T10:09:38.516Z,30720.00
2018-04-23T10:10:38.517Z,31072.00
2018-04-23T10:11:38.539Z,31392.00
2018-04-23T10:12:38.429Z,31712.00
2018-04-23T10:13:38.425Z,32800.00
2018-04-23T10:14:38.410Z,34656.00
2018-04-23T10:15:38.362Z,36960.00
2018-04-23T10:16:38.346Z,38112.00
2018-04-23T10:17:38.304Z,38496.00
2018-04-23T10:18:38.318Z,39936.00
2018-04-23T10:19:38.266Z,44064.00
2018-04-23T10:20:38.215Z,54368.00
2018-04-23T10:21:38.184Z,64512.00
2018-04-23T10:22:38.187Z,64064.00
2018-04-23T10:23:38.165Z,83200.00
2018-04-23T10:24:38.118Z,64512.00
2018-04-23T10:25:38.109Z,56992.00
2018-04-23T10:26:38.063Z,59776.00
2018-04-23T10:27:38.184Z,67296.00
2018-04-23T10:28:38.031Z,57376.00
2018-04-23T10:29:38.100Z,58784.00
2018-04-23T10:30:37.942Z,57664.00
2018-04-23T10:31:37.924Z,55648.00
2018-04-23T10:32:37.897Z,55552.00
2018-04-23T10:33:37.863Z,56736.00
2018-04-23T10:34:37.846Z,55744.00
2018-04-23T10:35:37.820Z,56256.00
2018-04-23T10:36:37.783Z,57792.00
2018-04-23T10:37:37.764Z,55520.00
2018-04-23T10:38:37.733Z,53696.00
2018-04-23T10:39:37.702Z,53248.00
2018-04-23T10:40:37.718Z,53216.00
2018-04-23T10:41:37.669Z,53440.00
2018-04-23T10:42:37.659Z,55840.00
2018-04-23T10:43:37.608Z,59808.00
2018-04-23T10:44:37.596Z,59232.00
2018-04-23T10:45:37.558Z,58592.00
2018-04-23T10:46:37.527Z,66016.00
2018-04-23T10:47:37.527Z,61184.00
2018-04-23T10:48:37.480Z,62240.00
2018-04-23T10:49:37.484Z,55200.00
2018-04-23T10:50:37.431Z,54208.00
2018-04-23T10:51:37.455Z,50784.00
2018-04-23T10:52:37.412Z,43808.00
2018-04-23T10:53:37.384Z,39456.00
2018-04-23T10:54:37.360Z,35296.00
2018-04-23T10:55:37.303Z,32576.00
2018-04-23T10:56:37.279Z,30400.00
2018-04-23T10:57:37.274Z,29504.00
2018-04-23T10:58:37.234Z,30432.00
2018-04-23T10:59:37.200Z,31200.00
2018-04-23T11:00:37.188Z,29504.00
2018-04-23T11:01:37.156Z,28064.00
2018-04-23T11:02:37.143Z,28000.00
2018-04-23T11:03:37.115Z,30144.00
2018-04-23T11:04:37.083Z,32448.00
2018-04-23T11:05:37.051Z,33184.00
2018-04-23T11:06:37.036Z,34240.00
2018-04-23T11:07:37.019Z,34816.00
2018-04-23T11:08:36.992Z,33248.00
2018-04-23T11:09:37.019Z,31936.00
2018-04-23T11:10:37.017Z,31232.00
2018-04-23T11:11:36.931Z,30304.00
2018-04-23T11:12:36.881Z,29568.00
2018-04-23T11:13:36.842Z,29408.00
2018-04-23T11:14:36.817Z,30272.00
2018-04-23T11:15:36.796Z,30400.00
2018-04-23T11:16:36.787Z,29216.00
2018-04-23T11:17:36.774Z,28864.00
2018-04-23T11:18:36.725Z,29184.00
2018-04-23T11:19:36.678Z,28800.00
2018-04-23T11:20:36.682Z,28864.00
2018-04-23T11:21:36.631Z,29184.00
2018-04-23T11:22:36.663Z,30048.00
2018-04-23T11:23:36.590Z,31744.00
2018-04-23T11:24:36.551Z,33440.00
2018-04-23T11:25:36.529Z,35456.00
2018-04-23T11:26:36.503Z,38656.00
2018-04-23T11:27:36.481Z,39232.00
2018-04-23T11:28:36.439Z,38272.00
2018-04-23T11:29:36.428Z,37600.00
2018-04-23T11:30:36.406Z,38176.00
2018-04-23T11:31:36.362Z,39584.00
2018-04-23T11:32:36.352Z,41120.00
2018-04-23T11:33:36.309Z,42656.00
2018-04-23T11:34:36.799Z,43968.00
2018-04-23T11:35:36.289Z,44544.00
2018-04-23T11:36:36.224Z,54048.00
2018-04-23T11:37:36.225Z,53600.00
2018-04-23T11:38:36.190Z,44480.00
2018-04-23T11:39:36.200Z,43712.00
2018-04-23T11:40:36.121Z,44288.00
2018-04-23T11:41:36.179Z,45280.00
2018-04-23T11:42:36.084Z,48192.00
2018-04-23T11:43:36.050Z,48768.00
2018-04-23T11:44:36.053Z,47840.00
2018-04-23T11:45:36.060Z,52864.00
2018-04-23T11:46:35.981Z,47424.00
2018-04-23T11:47:35.951Z,46240.00
2018-04-23T11:48:35.976Z,45280.00
2018-04-23T11:49:35.891Z,44928.00
2018-04-23T11:50:35.859Z,44640.00
2018-04-23T11:51:35.839Z,43904.00
2018-04-23T11:52:35.808Z,42496.00
2018-04-23T11:53:35.787Z,41920.00
2018-04-23T11:54:35.768Z,40384.00
2018-04-23T11:55:35.741Z,38656.00
2018-04-23T11:56:35.713Z,37408.00
2018-04-23T11:57:35.704Z,36736.00
2018-04-23T11:58:35.668Z,36288.00
2018-04-23T11:59:35.679Z,36704.00
2018-04-23T12:00:35.648Z,37792.00
2018-04-23T12:01:35.582Z,38112.00
2018-04-23T12:02:35.547Z,39360.00
2018-04-23T12:03:35.551Z,40800.00
2018-04-23T12:04:35.521Z,58144.00
2018-04-23T12:05:35.474Z,49696.00
2018-04-23T12:06:35.503Z,44064.00
2018-04-23T12:07:35.421Z,41792.00
2018-04-23T12:08:35.403Z,36640.00
2018-04-23T12:09:35.384Z,40192.00
2018-04-23T12:10:35.346Z,57024.00
2018-04-23T12:11:35.318Z,73728.00
2018-04-23T12:12:35.296Z,62592.00
2018-04-23T12:13:35.254Z,62016.00
2018-04-23T12:14:35.254Z,77664.00
2018-04-23T12:15:35.216Z,74400.00